Terminal Aerodrome Forecast
Issued by NWS

Home | Current Version | Previous Version | Text Only | Print | Product List | Glossary Off
Versions: 1 2 3 4 5 6 7 8 9 10 11 12 13 14 15 16 17 18 19

000
FTUS43 KICT 020536
TAFCNU
TAF
KCNU 020536Z 0206/0306 VRB03KT P6SM SKC
     FM020900 VRB03KT 3SM BR SCT010 BKN250
      TEMPO 0210/0214 BKN010
     FM021400 10005KT 5SM BR BKN014
     FM021600 12007KT P6SM SCT020 BKN250
     FM022100 15009KT P6SM OVC025
     FM030000 17012KT 5SM BR OVC020=

USA.gov is the U.S. government's official web portal to all federal, state and local government web resources and services.